Moscow, Russia
Current Conditions -  °F | °C
As of 1:00 AM on Tuesday 27 Jan 2015 (Local Time) from UUWW Reporting Station
Overcast Overcast  
Wind Chill:   Ceiling: 1700
Heat Index: 12°   Visibility: 6mi
Dew Point:   Wind: 4mph
Humidity: 85%   Direction: NA
Pressure: 30.15"   Gusts: NA
Location:  55.75°N, 37.62°E
Report Text: UUWW 262200Z VRB02MPS 9999 OVC017 M11/M13 Q1021 24450550 NOSIG
Loading
Personal Weather Stations






























Interactive Weather Map New forecast layout! Learn more

10-Day Weather Forecast

Advertisements
Track Severe Weather on mobile